createdAt,value
2022-10-09T17:12:58.620Z,59.31
2022-10-09T17:15:46.955Z,60.47
2022-10-09T17:18:37.515Z,61.23
2022-10-09T17:21:29.749Z,66.51
2022-10-09T17:24:20.882Z,68.50
2022-10-09T17:27:10.217Z,65.54
2022-10-09T17:30:01.705Z,62.86
2022-10-09T17:33:03.716Z,60.87
2022-10-09T17:35:51.989Z,57.74
2022-10-09T17:38:39.919Z,57.54
2022-10-09T17:41:29.350Z,59.21
2022-10-09T17:44:17.359Z,61.25
2022-10-09T17:47:06.327Z,65.21
2022-10-09T17:49:55.627Z,67.82
2022-10-09T17:52:44.743Z,64.82
2022-10-09T17:55:33.432Z,62.11
2022-10-09T17:58:24.249Z,60.59
2022-10-09T18:01:12.546Z,57.53
2022-10-09T18:04:01.146Z,57.62
2022-10-09T18:06:50.439Z,59.62
2022-10-09T18:09:39.864Z,61.34
2022-10-09T18:12:27.657Z,66.39
2022-10-09T18:15:16.077Z,67.31
2022-10-09T18:18:05.393Z,64.53
2022-10-09T18:20:53.809Z,62.03
2022-10-09T18:23:41.806Z,60.51
2022-10-09T18:26:29.892Z,57.71
2022-10-09T18:29:17.790Z,57.75
2022-10-09T18:32:06.041Z,59.79
2022-10-09T18:34:54.046Z,61.90
2022-10-09T18:37:42.063Z,66.69
2022-10-09T18:40:30.246Z,67.57
2022-10-09T18:43:25.572Z,64.49
2022-10-09T18:46:17.376Z,62.06
2022-10-09T18:49:09.952Z,60.82
2022-10-09T18:52:01.823Z,59.44
2022-10-09T18:54:54.240Z,56.52
2022-10-09T18:57:43.073Z,57.53
2022-10-09T19:00:32.351Z,59.28
2022-10-09T19:03:20.321Z,61.83
2022-10-09T19:06:10.287Z,66.98
2022-10-09T19:09:01.180Z,67.80
2022-10-09T19:11:51.201Z,64.62
2022-10-09T19:14:39.203Z,62.46
2022-10-09T19:17:27.686Z,61.02
2022-10-09T19:20:16.146Z,60.06
2022-10-09T19:23:04.484Z,57.60
2022-10-09T19:25:55.899Z,57.80
2022-10-09T19:28:53.308Z,60.04
2022-10-09T19:31:42.147Z,66.42
2022-10-09T19:34:30.908Z,66.95
2022-10-09T19:37:19.065Z,64.71
2022-10-09T19:40:08.296Z,63.19
2022-10-09T19:42:58.212Z,61.83
2022-10-09T19:45:49.324Z,60.36
2022-10-09T19:48:38.513Z,58.95
2022-10-09T19:51:27.801Z,60.32
2022-10-09T19:54:16.082Z,62.95
2022-10-09T19:57:04.233Z,65.34
2022-10-09T19:59:52.250Z,64.72
2022-10-09T20:02:40.417Z,63.43
2022-10-09T20:05:28.668Z,62.00
2022-10-09T20:08:16.620Z,61.49
2022-10-09T20:11:06.055Z,60.74
2022-10-09T20:13:56.180Z,59.86
2022-10-09T20:16:44.417Z,57.52
2022-10-09T20:19:33.171Z,58.59
2022-10-09T20:22:21.070Z,59.60
2022-10-09T20:25:09.594Z,60.56
2022-10-09T20:27:58.036Z,64.25
2022-10-09T20:30:56.425Z,68.99
2022-10-09T20:33:48.111Z,66.85
2022-10-09T20:36:39.170Z,64.34
2022-10-09T20:39:27.186Z,63.25
2022-10-09T20:42:15.430Z,61.74
2022-10-09T20:45:03.569Z,61.20
2022-10-09T20:47:52.095Z,60.79
2022-10-09T20:50:42.178Z,59.86
2022-10-09T20:53:30.144Z,57.27
2022-10-09T20:56:18.683Z,58.34
2022-10-09T20:59:08.741Z,60.60
2022-10-09T21:01:56.407Z,65.69
2022-10-09T21:04:46.123Z,67.13
2022-10-09T21:07:33.984Z,64.51
2022-10-09T21:10:21.736Z,62.89
2022-10-09T21:13:09.944Z,61.17
2022-10-09T21:15:57.872Z,60.10
2022-10-09T21:18:47.021Z,57.58
2022-10-09T21:21:35.031Z,58.53
2022-10-09T21:24:23.025Z,60.26
2022-10-09T21:27:11.191Z,65.64
2022-10-09T21:29:59.203Z,66.64
2022-10-09T21:32:47.533Z,64.05
2022-10-09T21:35:55.521Z,62.26
2022-10-09T21:38:43.463Z,60.85
2022-10-09T21:41:33.084Z,60.32
2022-10-09T21:44:21.629Z,59.63
2022-10-09T21:47:18.590Z,57.60
2022-10-09T21:50:07.841Z,58.20
2022-10-09T21:52:56.428Z,60.32
2022-10-09T21:55:44.363Z,65.24
2022-10-09T21:58:35.750Z,67.15
2022-10-09T22:01:23.293Z,64.67
2022-10-09T22:04:11.095Z,62.32
2022-10-09T22:06:59.139Z,60.57
2022-10-09T22:09:47.373Z,59.55
2022-10-09T22:12:35.252Z,57.21
2022-10-09T22:15:23.296Z,58.18
2022-10-09T22:18:12.389Z,60.53
2022-10-09T22:21:09.827Z,66.08
2022-10-09T22:23:57.588Z,66.65
2022-10-09T22:26:48.128Z,64.55
2022-10-09T22:29:38.620Z,62.76
2022-10-09T22:32:26.666Z,61.20
2022-10-09T22:35:14.442Z,59.70
2022-10-09T22:38:02.630Z,57.21
2022-10-09T22:40:50.803Z,59.98
2022-10-09T22:43:41.433Z,61.48
2022-10-09T22:46:33.699Z,65.59
2022-10-09T22:49:21.349Z,65.93
2022-10-09T22:52:09.159Z,64.98
2022-10-09T22:54:57.176Z,62.46
2022-10-09T22:57:45.149Z,60.67
2022-10-09T23:00:36.751Z,59.39
2022-10-09T23:03:24.658Z,60.29
2022-10-09T23:06:19.713Z,64.11
2022-10-09T23:09:10.872Z,66.84
2022-10-09T23:12:00.305Z,65.36
2022-10-09T23:14:47.956Z,64.18
2022-10-09T23:17:36.006Z,62.81
2022-10-09T23:20:23.926Z,62.22
2022-10-09T23:23:11.999Z,61.26
2022-10-09T23:26:04.934Z,60.62
2022-10-09T23:28:59.658Z,59.50
2022-10-09T23:31:48.766Z,56.93
2022-10-09T23:34:36.466Z,57.10
2022-10-09T23:37:24.566Z,61.30
2022-10-09T23:40:12.465Z,64.51
2022-10-09T23:43:00.352Z,65.06
2022-10-09T23:45:48.665Z,65.06
2022-10-09T23:48:37.117Z,64.14
2022-10-09T23:51:26.468Z,60.66
2022-10-09T23:54:14.326Z,59.42
2022-10-09T23:57:02.412Z,62.45
2022-10-09T23:59:50.318Z,64.11
